E.r.brandenburg — A8SZ5 — position and weather

sailwx.info

Track history (hours):
 
Tides and Currents Weather Stations Pressure Air Temp Water Temp Dewpoint Dewpoint Depression Visibility Wind Speed Wind Dir Waves Ship Positions

E.r.brandenburg

Last reported at 2017-Jan-23 18:00 UTC. Time now 2017-Jan-23 23:05 UTC.
Position N 28°00' E 123°30'.

Length 292 m; draft 10.7 m.

Type: Cargo ship. MMSI: 636091798.

Wind from 050 at 18 knots

Barometer 1030.0 mb
Air temperature 10.0 ° C
Visibility: greater than 10.8 NM

Date/timePositionNaut miles runAvg speedWind from/ knotsBaromVisibWave heightAir tempDewpointWater temp
2017-Jan-23 18:00N 28°00' E 123°30'47413.2 050 / 181030.010.8 10.0
2017-Jan-22 06:00N 35°54' E 123°54'7512.4 340 / 331028.0 2.2 -1.0 12.0
2017-Jan-22 00:00N 37°06' E 123°30'13512.7 320 / 281029.0 5.4 -3.0-6.1
2017-Jan-21 13:21N 38°25' E 121°11'1012.2
2017-Jan-21 12:33N 38°30' E 121°00'1111.3
2017-Jan-21 11:33N 38°33' E 120°46'1211.6
2017-Jan-21 10:32N 38°33' E 120°31'  
2017-Jan-15 06:00N 38°36' E 119°42'4014.1 260 / 51029.510.8 -0.0-2.7
2017-Jan-15 03:07N 38°39' E 120°34'712.3
2017-Jan-15 02:33N 38°40' E 120°43'1211.7
2017-Jan-15 01:33N 38°37' E 120°57'1211.5
2017-Jan-15 00:30N 38°30' E 121°10'1211.8
2017-Jan-14 23:30N 38°24' E 121°23'6511.8
2017-Jan-14 18:00N 37°54' E 122°36'6110.2 010 / 201032.0 5.4 -2.6
2017-Jan-14 12:00N 37°00' E 123°12'6510.8 010 / 241028.0 2.2 -1.0-1.0
2017-Jan-14 06:00N 36°00' E 122°42'7312.1 360 / 231025.5 5.4 -0.0
2017-Jan-14 00:00N 35°24' E 121°24'   350 / 161026.0 5.4 3.0-5.3
Track history (hours):
 
Tides and Currents Weather Stations Pressure Air Temp Water Temp Dewpoint Dewpoint Depression Visibility Wind Speed Wind Dir Waves Ship Positions

E.r.brandenburg

Last reported at 2017-Jan-23 18:00 UTC. Time now 2017-Jan-23 23:05 UTC.
Position N 28°00' E 123°30'.

Length 292 m; draft 10.7 m.

Type: Cargo ship. MMSI: 636091798.

Wind from 050 at 18 knots

Barometer 1030.0 mb
Air temperature 10.0 ° C
Visibility: greater than 10.8 NM

Date/timePositionNaut miles runAvg speedWind from/ knotsBaromVisibWave heightAir tempDewpointWater temp
2017-Jan-23 18:00N 28°00' E 123°30'47413.2 050 / 181030.010.8 10.0
2017-Jan-22 06:00N 35°54' E 123°54'7512.4 340 / 331028.0 2.2 -1.0 12.0
2017-Jan-22 00:00N 37°06' E 123°30'13512.7 320 / 281029.0 5.4 -3.0-6.1
2017-Jan-21 13:21N 38°25' E 121°11'1012.2
2017-Jan-21 12:33N 38°30' E 121°00'1111.3
2017-Jan-21 11:33N 38°33' E 120°46'1211.6
2017-Jan-21 10:32N 38°33' E 120°31'  
2017-Jan-15 06:00N 38°36' E 119°42'4014.1 260 / 51029.510.8 -0.0-2.7
2017-Jan-15 03:07N 38°39' E 120°34'712.3
2017-Jan-15 02:33N 38°40' E 120°43'1211.7
2017-Jan-15 01:33N 38°37' E 120°57'1211.5
2017-Jan-15 00:30N 38°30' E 121°10'1211.8
2017-Jan-14 23:30N 38°24' E 121°23'6511.8
2017-Jan-14 18:00N 37°54' E 122°36'6110.2 010 / 201032.0 5.4 -2.6
2017-Jan-14 12:00N 37°00' E 123°12'6510.8 010 / 241028.0 2.2 -1.0-1.0
2017-Jan-14 06:00N 36°00' E 122°42'7312.1 360 / 231025.5 5.4 -0.0
2017-Jan-14 00:00N 35°24' E 121°24'   350 / 161026.0 5.4 3.0-5.3

Dump ship's entire track history